sensor_id;sensor_type;location;lat;lon;timestamp;P1;durP1;ratioP1;P2;durP2;ratioP2
65096;SDS011;51686;46.758;4.356;2023-05-29T00:01:01;7.72;;;3.15;;
65096;SDS011;51686;46.758;4.356;2023-05-29T00:03:48;7.57;;;3.30;;
65096;SDS011;51686;46.758;4.356;2023-05-29T00:06:35;7.07;;;3.15;;
65096;SDS011;51686;46.758;4.356;2023-05-29T00:09:22;7.97;;;3.33;;
65096;SDS011;51686;46.758;4.356;2023-05-29T00:12:09;8.05;;;3.10;;
65096;SDS011;51686;46.758;4.356;2023-05-29T00:17:45;7.78;;;3.25;;
65096;SDS011;51686;46.758;4.356;2023-05-29T00:20:33;7.60;;;3.07;;
65096;SDS011;51686;46.758;4.356;2023-05-29T00:23:21;8.25;;;3.05;;
65096;SDS011;51686;46.758;4.356;2023-05-29T00:26:10;7.47;;;3.00;;
65096;SDS011;51686;46.758;4.356;2023-05-29T00:28:58;8.23;;;3.28;;
65096;SDS011;51686;46.758;4.356;2023-05-29T00:31:47;7.20;;;3.08;;
65096;SDS011;51686;46.758;4.356;2023-05-29T00:34:34;7.95;;;3.28;;
65096;SDS011;51686;46.758;4.356;2023-05-29T00:37:22;8.07;;;3.03;;
65096;SDS011;51686;46.758;4.356;2023-05-29T00:40:09;8.48;;;3.20;;
65096;SDS011;51686;46.758;4.356;2023-05-29T00:42:57;7.80;;;3.00;;
65096;SDS011;51686;46.758;4.356;2023-05-29T00:45:43;7.85;;;3.10;;
65096;SDS011;51686;46.758;4.356;2023-05-29T00:48:31;8.45;;;3.17;;
65096;SDS011;51686;46.758;4.356;2023-05-29T00:51:18;7.65;;;3.33;;
65096;SDS011;51686;46.758;4.356;2023-05-29T00:54:06;7.43;;;3.10;;
65096;SDS011;51686;46.758;4.356;2023-05-29T00:56:54;8.38;;;3.20;;
65096;SDS011;51686;46.758;4.356;2023-05-29T00:59:41;8.00;;;3.22;;
65096;SDS011;51686;46.758;4.356;2023-05-29T01:02:28;7.30;;;3.20;;
65096;SDS011;51686;46.758;4.356;2023-05-29T01:05:16;7.38;;;2.95;;
65096;SDS011;51686;46.758;4.356;2023-05-29T01:08:05;7.95;;;3.20;;
65096;SDS011;51686;46.758;4.356;2023-05-29T01:10:54;8.77;;;3.53;;
65096;SDS011;51686;46.758;4.356;2023-05-29T01:13:43;8.07;;;3.28;;
65096;SDS011;51686;46.758;4.356;2023-05-29T01:20:06;7.90;;;3.40;;
65096;SDS011;51686;46.758;4.356;2023-05-29T01:26:07;7.97;;;3.25;;
65096;SDS011;51686;46.758;4.356;2023-05-29T01:29:00;7.40;;;3.00;;
65096;SDS011;51686;46.758;4.356;2023-05-29T01:31:49;7.85;;;3.10;;
65096;SDS011;51686;46.758;4.356;2023-05-29T01:34:37;8.98;;;3.50;;
65096;SDS011;51686;46.758;4.356;2023-05-29T01:37:23;8.65;;;3.47;;
65096;SDS011;51686;46.758;4.356;2023-05-29T01:40:11;7.82;;;3.28;;
65096;SDS011;51686;46.758;4.356;2023-05-29T01:42:58;8.68;;;3.63;;
65096;SDS011;51686;46.758;4.356;2023-05-29T01:45:45;8.90;;;3.38;;
65096;SDS011;51686;46.758;4.356;2023-05-29T01:48:32;7.72;;;3.38;;
65096;SDS011;51686;46.758;4.356;2023-05-29T01:51:19;7.15;;;3.13;;
65096;SDS011;51686;46.758;4.356;2023-05-29T01:54:06;8.85;;;3.45;;
65096;SDS011;51686;46.758;4.356;2023-05-29T01:56:53;8.55;;;3.33;;
65096;SDS011;51686;46.758;4.356;2023-05-29T01:59:41;7.68;;;3.53;;
65096;SDS011;51686;46.758;4.356;2023-05-29T02:02:28;9.05;;;3.30;;
65096;SDS011;51686;46.758;4.356;2023-05-29T02:05:15;9.23;;;3.50;;
65096;SDS011;51686;46.758;4.356;2023-05-29T02:08:03;8.35;;;3.20;;
65096;SDS011;51686;46.758;4.356;2023-05-29T02:10:50;8.25;;;3.60;;
65096;SDS011;51686;46.758;4.356;2023-05-29T02:13:37;7.50;;;3.30;;
65096;SDS011;51686;46.758;4.356;2023-05-29T02:16:24;9.32;;;3.28;;
65096;SDS011;51686;46.758;4.356;2023-05-29T02:19:14;7.85;;;3.33;;
65096;SDS011;51686;46.758;4.356;2023-05-29T02:22:02;8.03;;;3.37;;
65096;SDS011;51686;46.758;4.356;2023-05-29T02:24:49;7.10;;;2.90;;
65096;SDS011;51686;46.758;4.356;2023-05-29T02:27:36;7.40;;;3.20;;
65096;SDS011;51686;46.758;4.356;2023-05-29T02:30:23;9.48;;;3.10;;
65096;SDS011;51686;46.758;4.356;2023-05-29T02:33:10;7.28;;;3.00;;
65096;SDS011;51686;46.758;4.356;2023-05-29T02:35:57;8.25;;;3.10;;
65096;SDS011;51686;46.758;4.356;2023-05-29T02:38:44;7.95;;;3.38;;
65096;SDS011;51686;46.758;4.356;2023-05-29T02:41:31;8.65;;;3.50;;
65096;SDS011;51686;46.758;4.356;2023-05-29T02:44:17;8.40;;;3.38;;
65096;SDS011;51686;46.758;4.356;2023-05-29T02:47:04;7.60;;;3.28;;
65096;SDS011;51686;46.758;4.356;2023-05-29T02:49:51;8.68;;;3.03;;
65096;SDS011;51686;46.758;4.356;2023-05-29T02:52:38;7.00;;;3.28;;
65096;SDS011;51686;46.758;4.356;2023-05-29T02:55:26;8.05;;;2.97;;
65096;SDS011;51686;46.758;4.356;2023-05-29T02:58:13;7.25;;;3.03;;
65096;SDS011;51686;46.758;4.356;2023-05-29T03:01:00;7.80;;;3.40;;
65096;SDS011;51686;46.758;4.356;2023-05-29T03:03:49;8.00;;;3.58;;
65096;SDS011;51686;46.758;4.356;2023-05-29T03:06:36;8.40;;;3.00;;
65096;SDS011;51686;46.758;4.356;2023-05-29T03:09:24;7.50;;;3.03;;
65096;SDS011;51686;46.758;4.356;2023-05-29T03:12:11;7.50;;;3.33;;
65096;SDS011;51686;46.758;4.356;2023-05-29T03:14:58;8.50;;;3.50;;
65096;SDS011;51686;46.758;4.356;2023-05-29T03:17:45;7.63;;;3.40;;
65096;SDS011;51686;46.758;4.356;2023-05-29T03:20:32;7.93;;;3.08;;
65096;SDS011;51686;46.758;4.356;2023-05-29T03:23:20;7.63;;;3.25;;
65096;SDS011;51686;46.758;4.356;2023-05-29T03:26:06;8.40;;;3.42;;
65096;SDS011;51686;46.758;4.356;2023-05-29T03:28:53;8.80;;;3.35;;
65096;SDS011;51686;46.758;4.356;2023-05-29T03:31:40;7.63;;;3.28;;
65096;SDS011;51686;46.758;4.356;2023-05-29T03:34:27;7.93;;;3.20;;
65096;SDS011;51686;46.758;4.356;2023-05-29T03:37:14;9.07;;;3.35;;
65096;SDS011;51686;46.758;4.356;2023-05-29T03:40:01;7.57;;;3.30;;
65096;SDS011;51686;46.758;4.356;2023-05-29T03:42:49;7.70;;;3.37;;
65096;SDS011;51686;46.758;4.356;2023-05-29T03:45:37;8.45;;;3.30;;
65096;SDS011;51686;46.758;4.356;2023-05-29T03:48:24;8.23;;;3.47;;
65096;SDS011;51686;46.758;4.356;2023-05-29T03:51:11;7.60;;;3.28;;
65096;SDS011;51686;46.758;4.356;2023-05-29T03:53:58;8.07;;;3.20;;
65096;SDS011;51686;46.758;4.356;2023-05-29T03:56:45;8.38;;;3.10;;
65096;SDS011;51686;46.758;4.356;2023-05-29T03:59:32;8.30;;;3.50;;
65096;SDS011;51686;46.758;4.356;2023-05-29T04:02:19;7.30;;;3.13;;
65096;SDS011;51686;46.758;4.356;2023-05-29T04:05:06;8.13;;;3.38;;
65096;SDS011;51686;46.758;4.356;2023-05-29T04:07:53;8.50;;;3.80;;
65096;SDS011;51686;46.758;4.356;2023-05-29T04:10:59;7.65;;;3.13;;
65096;SDS011;51686;46.758;4.356;2023-05-29T04:13:48;7.97;;;3.30;;
65096;SDS011;51686;46.758;4.356;2023-05-29T04:16:35;7.95;;;3.35;;
65096;SDS011;51686;46.758;4.356;2023-05-29T04:19:22;6.85;;;2.80;;
65096;SDS011;51686;46.758;4.356;2023-05-29T04:22:08;8.18;;;3.20;;
65096;SDS011;51686;46.758;4.356;2023-05-29T04:24:55;8.95;;;3.45;;
65096;SDS011;51686;46.758;4.356;2023-05-29T04:27:42;7.13;;;3.15;;
65096;SDS011;51686;46.758;4.356;2023-05-29T04:30:29;7.85;;;3.30;;
65096;SDS011;51686;46.758;4.356;2023-05-29T04:33:17;7.57;;;3.20;;
65096;SDS011;51686;46.758;4.356;2023-05-29T04:36:04;8.10;;;3.42;;
65096;SDS011;51686;46.758;4.356;2023-05-29T04:38:52;8.77;;;3.50;;
65096;SDS011;51686;46.758;4.356;2023-05-29T04:41:40;8.75;;;3.50;;
65096;SDS011;51686;46.758;4.356;2023-05-29T04:44:27;8.02;;;3.03;;
65096;SDS011;51686;46.758;4.356;2023-05-29T04:47:15;8.32;;;3.38;;
65096;SDS011;51686;46.758;4.356;2023-05-29T04:50:02;9.02;;;3.40;;
65096;SDS011;51686;46.758;4.356;2023-05-29T04:52:49;10.18;;;3.63;;
65096;SDS011;51686;46.758;4.356;2023-05-29T04:55:36;8.13;;;3.53;;
65096;SDS011;51686;46.758;4.356;2023-05-29T04:58:26;7.07;;;2.78;;
65096;SDS011;51686;46.758;4.356;2023-05-29T05:01:13;8.38;;;3.50;;
65096;SDS011;51686;46.758;4.356;2023-05-29T05:04:01;6.60;;;2.80;;
65096;SDS011;51686;46.758;4.356;2023-05-29T05:06:48;8.13;;;3.65;;
65096;SDS011;51686;46.758;4.356;2023-05-29T05:09:34;8.48;;;3.15;;
65096;SDS011;51686;46.758;4.356;2023-05-29T05:12:21;8.05;;;3.40;;
65096;SDS011;51686;46.758;4.356;2023-05-29T05:15:09;8.88;;;3.30;;
65096;SDS011;51686;46.758;4.356;2023-05-29T05:17:56;7.95;;;3.30;;
65096;SDS011;51686;46.758;4.356;2023-05-29T05:20:43;8.73;;;3.40;;
65096;SDS011;51686;46.758;4.356;2023-05-29T05:23:30;8.30;;;3.53;;
65096;SDS011;51686;46.758;4.356;2023-05-29T05:26:27;8.27;;;3.40;;
65096;SDS011;51686;46.758;4.356;2023-05-29T05:29:14;7.32;;;3.08;;
65096;SDS011;51686;46.758;4.356;2023-05-29T05:32:01;7.93;;;2.90;;
65096;SDS011;51686;46.758;4.356;2023-05-29T05:34:48;7.97;;;3.30;;
65096;SDS011;51686;46.758;4.356;2023-05-29T05:37:35;9.10;;;3.17;;
65096;SDS011;51686;46.758;4.356;2023-05-29T05:40:22;9.05;;;3.50;;
65096;SDS011;51686;46.758;4.356;2023-05-29T05:43:09;8.27;;;3.45;;
65096;SDS011;51686;46.758;4.356;2023-05-29T05:45:56;8.48;;;3.25;;
65096;SDS011;51686;46.758;4.356;2023-05-29T05:48:43;7.80;;;3.13;;
65096;SDS011;51686;46.758;4.356;2023-05-29T05:51:30;8.02;;;3.17;;
65096;SDS011;51686;46.758;4.356;2023-05-29T05:54:17;7.72;;;3.10;;
65096;SDS011;51686;46.758;4.356;2023-05-29T05:57:04;8.10;;;3.10;;
65096;SDS011;51686;46.758;4.356;2023-05-29T05:59:51;7.57;;;3.15;;
65096;SDS011;51686;46.758;4.356;2023-05-29T06:02:38;8.00;;;3.05;;
65096;SDS011;51686;46.758;4.356;2023-05-29T06:05:29;7.72;;;3.05;;
65096;SDS011;51686;46.758;4.356;2023-05-29T06:08:16;7.38;;;2.90;;
65096;SDS011;51686;46.758;4.356;2023-05-29T06:11:03;8.60;;;3.22;;
65096;SDS011;51686;46.758;4.356;2023-05-29T06:13:50;7.13;;;2.78;;
65096;SDS011;51686;46.758;4.356;2023-05-29T06:16:39;7.13;;;3.08;;
65096;SDS011;51686;46.758;4.356;2023-05-29T06:19:25;8.55;;;3.05;;
65096;SDS011;51686;46.758;4.356;2023-05-29T06:22:13;7.47;;;2.80;;
65096;SDS011;51686;46.758;4.356;2023-05-29T06:25:00;7.63;;;2.90;;
65096;SDS011;51686;46.758;4.356;2023-05-29T06:27:51;6.45;;;2.78;;
65096;SDS011;51686;46.758;4.356;2023-05-29T06:30:38;7.65;;;3.03;;
65096;SDS011;51686;46.758;4.356;2023-05-29T06:33:26;7.30;;;2.70;;
65096;SDS011;51686;46.758;4.356;2023-05-29T06:36:13;6.68;;;2.70;;
65096;SDS011;51686;46.758;4.356;2023-05-29T06:39:00;7.93;;;2.92;;
65096;SDS011;51686;46.758;4.356;2023-05-29T06:41:47;8.38;;;3.10;;
65096;SDS011;51686;46.758;4.356;2023-05-29T06:44:34;6.72;;;2.88;;
65096;SDS011;51686;46.758;4.356;2023-05-29T06:47:21;6.55;;;2.70;;
65096;SDS011;51686;46.758;4.356;2023-05-29T06:50:08;7.20;;;2.90;;
65096;SDS011;51686;46.758;4.356;2023-05-29T06:52:55;8.13;;;2.97;;
65096;SDS011;51686;46.758;4.356;2023-05-29T06:55:42;7.53;;;2.90;;
65096;SDS011;51686;46.758;4.356;2023-05-29T06:58:31;7.00;;;2.60;;
65096;SDS011;51686;46.758;4.356;2023-05-29T07:01:18;7.60;;;2.60;;
65096;SDS011;51686;46.758;4.356;2023-05-29T07:04:05;6.95;;;2.47;;
65096;SDS011;51686;46.758;4.356;2023-05-29T07:06:53;6.82;;;2.58;;
65096;SDS011;51686;46.758;4.356;2023-05-29T07:09:40;7.57;;;2.85;;
65096;SDS011;51686;46.758;4.356;2023-05-29T07:12:27;7.18;;;2.65;;
65096;SDS011;51686;46.758;4.356;2023-05-29T07:15:14;7.13;;;2.85;;
65096;SDS011;51686;46.758;4.356;2023-05-29T07:18:01;7.35;;;2.90;;
65096;SDS011;51686;46.758;4.356;2023-05-29T07:20:48;7.30;;;2.85;;
65096;SDS011;51686;46.758;4.356;2023-05-29T07:23:35;6.93;;;2.70;;
65096;SDS011;51686;46.758;4.356;2023-05-29T07:26:22;7.05;;;2.65;;
65096;SDS011;51686;46.758;4.356;2023-05-29T07:29:09;7.32;;;2.50;;
65096;SDS011;51686;46.758;4.356;2023-05-29T07:31:57;7.40;;;2.90;;
65096;SDS011;51686;46.758;4.356;2023-05-29T07:34:43;8.32;;;2.95;;
65096;SDS011;51686;46.758;4.356;2023-05-29T07:37:34;7.38;;;2.90;;
65096;SDS011;51686;46.758;4.356;2023-05-29T07:40:21;7.65;;;3.13;;
65096;SDS011;51686;46.758;4.356;2023-05-29T07:43:08;7.97;;;2.70;;
65096;SDS011;51686;46.758;4.356;2023-05-29T07:45:55;6.45;;;2.80;;
65096;SDS011;51686;46.758;4.356;2023-05-29T07:48:42;8.05;;;2.90;;
65096;SDS011;51686;46.758;4.356;2023-05-29T07:51:29;6.22;;;2.63;;
65096;SDS011;51686;46.758;4.356;2023-05-29T07:54:16;8.02;;;2.90;;
65096;SDS011;51686;46.758;4.356;2023-05-29T07:57:07;8.20;;;2.97;;
65096;SDS011;51686;46.758;4.356;2023-05-29T07:59:56;6.70;;;2.65;;
65096;SDS011;51686;46.758;4.356;2023-05-29T08:02:43;6.82;;;2.90;;
65096;SDS011;51686;46.758;4.356;2023-05-29T08:05:30;6.93;;;2.75;;
65096;SDS011;51686;46.758;4.356;2023-05-29T08:08:18;6.88;;;2.58;;
65096;SDS011;51686;46.758;4.356;2023-05-29T08:11:06;6.43;;;2.58;;
65096;SDS011;51686;46.758;4.356;2023-05-29T08:13:53;6.65;;;2.40;;
65096;SDS011;51686;46.758;4.356;2023-05-29T08:16:39;7.07;;;2.67;;
65096;SDS011;51686;46.758;4.356;2023-05-29T08:19:26;7.78;;;2.60;;
65096;SDS011;51686;46.758;4.356;2023-05-29T08:22:13;5.95;;;2.60;;
65096;SDS011;51686;46.758;4.356;2023-05-29T08:25:01;6.77;;;2.53;;
65096;SDS011;51686;46.758;4.356;2023-05-29T08:27:48;7.40;;;2.50;;
65096;SDS011;51686;46.758;4.356;2023-05-29T08:30:35;7.05;;;2.65;;
65096;SDS011;51686;46.758;4.356;2023-05-29T08:33:23;5.80;;;2.45;;
65096;SDS011;51686;46.758;4.356;2023-05-29T08:36:10;6.57;;;2.40;;
65096;SDS011;51686;46.758;4.356;2023-05-29T08:38:57;6.40;;;2.22;;
65096;SDS011;51686;46.758;4.356;2023-05-29T08:44:48;6.45;;;2.50;;
65096;SDS011;51686;46.758;4.356;2023-05-29T08:47:36;5.78;;;2.25;;
65096;SDS011;51686;46.758;4.356;2023-05-29T08:50:25;6.65;;;2.30;;
65096;SDS011;51686;46.758;4.356;2023-05-29T08:53:13;5.70;;;2.28;;
65096;SDS011;51686;46.758;4.356;2023-05-29T08:56:00;9.00;;;2.50;;
65096;SDS011;51686;46.758;4.356;2023-05-29T08:58:48;6.13;;;2.40;;
65096;SDS011;51686;46.758;4.356;2023-05-29T09:01:35;6.10;;;2.20;;
65096;SDS011;51686;46.758;4.356;2023-05-29T09:04:27;5.93;;;2.33;;
65096;SDS011;51686;46.758;4.356;2023-05-29T09:07:17;6.70;;;2.40;;
65096;SDS011;51686;46.758;4.356;2023-05-29T09:10:05;6.20;;;2.10;;
65096;SDS011;51686;46.758;4.356;2023-05-29T09:12:53;6.03;;;2.10;;
65096;SDS011;51686;46.758;4.356;2023-05-29T09:15:40;6.05;;;2.00;;
65096;SDS011;51686;46.758;4.356;2023-05-29T09:18:30;4.72;;;2.00;;
65096;SDS011;51686;46.758;4.356;2023-05-29T09:21:27;7.85;;;2.33;;
65096;SDS011;51686;46.758;4.356;2023-05-29T09:24:16;4.95;;;2.03;;
65096;SDS011;51686;46.758;4.356;2023-05-29T09:27:03;7.28;;;2.22;;
65096;SDS011;51686;46.758;4.356;2023-05-29T09:29:51;5.93;;;2.08;;
65096;SDS011;51686;46.758;4.356;2023-05-29T09:32:37;5.45;;;2.10;;
65096;SDS011;51686;46.758;4.356;2023-05-29T09:35:36;4.38;;;1.95;;
65096;SDS011;51686;46.758;4.356;2023-05-29T09:38:24;6.45;;;2.22;;
65096;SDS011;51686;46.758;4.356;2023-05-29T09:41:32;5.82;;;1.92;;
65096;SDS011;51686;46.758;4.356;2023-05-29T09:44:19;4.68;;;1.90;;
65096;SDS011;51686;46.758;4.356;2023-05-29T09:47:07;6.32;;;2.20;;
65096;SDS011;51686;46.758;4.356;2023-05-29T09:49:54;4.18;;;1.90;;
65096;SDS011;51686;46.758;4.356;2023-05-29T09:52:41;5.63;;;2.10;;
65096;SDS011;51686;46.758;4.356;2023-05-29T09:55:28;3.92;;;1.77;;
65096;SDS011;51686;46.758;4.356;2023-05-29T09:58:20;5.55;;;2.22;;
65096;SDS011;51686;46.758;4.356;2023-05-29T10:01:07;5.43;;;2.00;;
65096;SDS011;51686;46.758;4.356;2023-05-29T10:03:54;5.68;;;2.05;;
65096;SDS011;51686;46.758;4.356;2023-05-29T10:06:41;4.55;;;1.80;;
65096;SDS011;51686;46.758;4.356;2023-05-29T10:09:33;4.45;;;1.90;;
65096;SDS011;51686;46.758;4.356;2023-05-29T10:12:21;5.82;;;2.15;;
65096;SDS011;51686;46.758;4.356;2023-05-29T10:15:12;4.90;;;2.15;;
65096;SDS011;51686;46.758;4.356;2023-05-29T10:18:04;6.15;;;2.08;;
65096;SDS011;51686;46.758;4.356;2023-05-29T10:20:52;6.15;;;2.10;;
65096;SDS011;51686;46.758;4.356;2023-05-29T10:23:45;5.97;;;2.20;;
65096;SDS011;51686;46.758;4.356;2023-05-29T10:26:36;5.03;;;2.00;;
65096;SDS011;51686;46.758;4.356;2023-05-29T10:32:23;5.93;;;2.00;;
65096;SDS011;51686;46.758;4.356;2023-05-29T10:35:20;5.45;;;2.05;;
65096;SDS011;51686;46.758;4.356;2023-05-29T10:38:12;5.35;;;1.92;;
65096;SDS011;51686;46.758;4.356;2023-05-29T10:41:27;5.10;;;1.85;;
65096;SDS011;51686;46.758;4.356;2023-05-29T10:47:22;5.07;;;1.92;;
65096;SDS011;51686;46.758;4.356;2023-05-29T10:50:10;4.60;;;1.88;;
65096;SDS011;51686;46.758;4.356;2023-05-29T10:52:57;5.18;;;2.17;;
65096;SDS011;51686;46.758;4.356;2023-05-29T10:55:44;5.60;;;2.08;;
65096;SDS011;51686;46.758;4.356;2023-05-29T10:58:32;5.38;;;2.00;;
65096;SDS011;51686;46.758;4.356;2023-05-29T11:01:22;5.80;;;2.15;;
65096;SDS011;51686;46.758;4.356;2023-05-29T11:07:32;5.72;;;2.05;;
65096;SDS011;51686;46.758;4.356;2023-05-29T11:10:41;5.05;;;1.90;;
65096;SDS011;51686;46.758;4.356;2023-05-29T11:13:51;5.55;;;2.00;;
65096;SDS011;51686;46.758;4.356;2023-05-29T11:16:38;5.95;;;2.08;;
65096;SDS011;51686;46.758;4.356;2023-05-29T11:19:25;5.60;;;1.95;;
65096;SDS011;51686;46.758;4.356;2023-05-29T11:22:15;5.38;;;1.98;;
65096;SDS011;51686;46.758;4.356;2023-05-29T11:25:07;5.50;;;2.05;;
65096;SDS011;51686;46.758;4.356;2023-05-29T11:27:54;4.00;;;1.85;;
65096;SDS011;51686;46.758;4.356;2023-05-29T11:30:41;4.93;;;1.83;;
65096;SDS011;51686;46.758;4.356;2023-05-29T11:33:28;4.55;;;1.90;;
65096;SDS011;51686;46.758;4.356;2023-05-29T11:36:20;4.30;;;1.75;;
65096;SDS011;51686;46.758;4.356;2023-05-29T11:39:08;4.93;;;1.90;;
65096;SDS011;51686;46.758;4.356;2023-05-29T11:41:56;5.18;;;1.90;;
65096;SDS011;51686;46.758;4.356;2023-05-29T11:44:43;4.82;;;1.88;;
65096;SDS011;51686;46.758;4.356;2023-05-29T11:47:29;5.35;;;2.13;;
65096;SDS011;51686;46.758;4.356;2023-05-29T11:50:18;4.97;;;1.90;;
65096;SDS011;51686;46.758;4.356;2023-05-29T11:53:06;5.18;;;1.95;;
65096;SDS011;51686;46.758;4.356;2023-05-29T11:56:05;4.55;;;1.80;;
65096;SDS011;51686;46.758;4.356;2023-05-29T11:58:53;5.18;;;2.00;;
65096;SDS011;51686;46.758;4.356;2023-05-29T12:01:44;4.80;;;1.90;;
65096;SDS011;51686;46.758;4.356;2023-05-29T12:04:31;5.18;;;1.80;;
65096;SDS011;51686;46.758;4.356;2023-05-29T12:07:18;5.10;;;1.90;;
65096;SDS011;51686;46.758;4.356;2023-05-29T12:10:09;6.17;;;2.07;;
65096;SDS011;51686;46.758;4.356;2023-05-29T12:12:59;6.72;;;2.38;;
65096;SDS011;51686;46.758;4.356;2023-05-29T12:15:50;5.53;;;2.20;;
65096;SDS011;51686;46.758;4.356;2023-05-29T12:18:40;5.22;;;2.10;;
65096;SDS011;51686;46.758;4.356;2023-05-29T12:21:27;6.15;;;2.00;;
65096;SDS011;51686;46.758;4.356;2023-05-29T12:24:14;5.40;;;1.88;;
65096;SDS011;51686;46.758;4.356;2023-05-29T12:27:03;5.00;;;1.70;;
65096;SDS011;51686;46.758;4.356;2023-05-29T12:29:59;5.15;;;1.90;;
65096;SDS011;51686;46.758;4.356;2023-05-29T12:32:47;5.50;;;1.70;;
65096;SDS011;51686;46.758;4.356;2023-05-29T12:35:35;5.20;;;1.90;;
65096;SDS011;51686;46.758;4.356;2023-05-29T12:38:22;5.88;;;1.80;;
65096;SDS011;51686;46.758;4.356;2023-05-29T12:41:18;5.28;;;2.00;;
65096;SDS011;51686;46.758;4.356;2023-05-29T12:44:13;3.90;;;1.80;;
65096;SDS011;51686;46.758;4.356;2023-05-29T12:47:00;4.78;;;1.83;;
65096;SDS011;51686;46.758;4.356;2023-05-29T12:49:47;5.50;;;1.70;;
65096;SDS011;51686;46.758;4.356;2023-05-29T12:52:34;5.15;;;1.95;;
65096;SDS011;51686;46.758;4.356;2023-05-29T12:55:21;5.32;;;1.80;;
65096;SDS011;51686;46.758;4.356;2023-05-29T12:58:09;5.30;;;1.90;;
65096;SDS011;51686;46.758;4.356;2023-05-29T13:00:59;4.65;;;1.80;;
65096;SDS011;51686;46.758;4.356;2023-05-29T13:03:49;5.47;;;1.90;;
65096;SDS011;51686;46.758;4.356;2023-05-29T13:06:37;5.68;;;2.00;;
65096;SDS011;51686;46.758;4.356;2023-05-29T13:09:24;5.15;;;1.95;;
65096;SDS011;51686;46.758;4.356;2023-05-29T13:12:11;3.97;;;1.70;;
65096;SDS011;51686;46.758;4.356;2023-05-29T13:14:58;6.00;;;2.05;;
65096;SDS011;51686;46.758;4.356;2023-05-29T13:17:45;5.35;;;1.98;;
65096;SDS011;51686;46.758;4.356;2023-05-29T13:20:32;4.60;;;1.90;;
65096;SDS011;51686;46.758;4.356;2023-05-29T13:23:19;4.93;;;2.05;;
65096;SDS011;51686;46.758;4.356;2023-05-29T13:26:06;5.13;;;1.80;;
65096;SDS011;51686;46.758;4.356;2023-05-29T13:28:53;4.97;;;1.90;;
65096;SDS011;51686;46.758;4.356;2023-05-29T13:31:40;4.78;;;1.90;;
65096;SDS011;51686;46.758;4.356;2023-05-29T13:34:27;5.38;;;1.90;;
65096;SDS011;51686;46.758;4.356;2023-05-29T13:37:15;5.47;;;1.90;;
65096;SDS011;51686;46.758;4.356;2023-05-29T13:40:02;5.65;;;2.05;;
65096;SDS011;51686;46.758;4.356;2023-05-29T13:45:37;4.93;;;1.80;;
65096;SDS011;51686;46.758;4.356;2023-05-29T13:48:26;5.22;;;1.77;;
65096;SDS011;51686;46.758;4.356;2023-05-29T13:51:13;4.93;;;1.90;;
65096;SDS011;51686;46.758;4.356;2023-05-29T13:54:00;5.53;;;2.08;;
65096;SDS011;51686;46.758;4.356;2023-05-29T13:56:47;4.70;;;1.90;;
65096;SDS011;51686;46.758;4.356;2023-05-29T13:59:34;4.57;;;1.77;;
65096;SDS011;51686;46.758;4.356;2023-05-29T14:02:21;4.03;;;1.80;;
65096;SDS011;51686;46.758;4.356;2023-05-29T14:05:09;3.67;;;1.67;;
65096;SDS011;51686;46.758;4.356;2023-05-29T14:07:57;4.80;;;1.67;;
65096;SDS011;51686;46.758;4.356;2023-05-29T14:10:44;4.75;;;1.75;;
65096;SDS011;51686;46.758;4.356;2023-05-29T14:13:31;5.43;;;1.92;;
65096;SDS011;51686;46.758;4.356;2023-05-29T14:16:18;5.63;;;1.90;;
65096;SDS011;51686;46.758;4.356;2023-05-29T14:19:05;5.15;;;1.88;;
65096;SDS011;51686;46.758;4.356;2023-05-29T14:21:52;5.57;;;2.00;;
65096;SDS011;51686;46.758;4.356;2023-05-29T14:24:39;5.10;;;1.88;;
65096;SDS011;51686;46.758;4.356;2023-05-29T14:27:26;6.68;;;2.22;;
65096;SDS011;51686;46.758;4.356;2023-05-29T14:30:13;4.68;;;1.85;;
65096;SDS011;51686;46.758;4.356;2023-05-29T14:33:00;5.47;;;2.00;;
65096;SDS011;51686;46.758;4.356;2023-05-29T14:35:47;5.32;;;2.00;;
65096;SDS011;51686;46.758;4.356;2023-05-29T14:38:34;4.80;;;2.03;;
65096;SDS011;51686;46.758;4.356;2023-05-29T14:44:10;5.25;;;1.98;;
65096;SDS011;51686;46.758;4.356;2023-05-29T14:46:59;4.65;;;2.00;;
65096;SDS011;51686;46.758;4.356;2023-05-29T14:49:46;6.05;;;2.10;;
65096;SDS011;51686;46.758;4.356;2023-05-29T14:52:33;6.10;;;2.08;;
65096;SDS011;51686;46.758;4.356;2023-05-29T14:55:20;6.28;;;2.30;;
65096;SDS011;51686;46.758;4.356;2023-05-29T14:58:07;6.25;;;2.42;;
65096;SDS011;51686;46.758;4.356;2023-05-29T15:00:54;6.40;;;2.65;;
65096;SDS011;51686;46.758;4.356;2023-05-29T15:03:41;5.43;;;2.08;;
65096;SDS011;51686;46.758;4.356;2023-05-29T15:06:28;5.78;;;2.30;;
65096;SDS011;51686;46.758;4.356;2023-05-29T15:09:15;6.25;;;2.20;;
65096;SDS011;51686;46.758;4.356;2023-05-29T15:12:02;6.50;;;2.38;;
65096;SDS011;51686;46.758;4.356;2023-05-29T15:14:49;6.00;;;2.25;;
65096;SDS011;51686;46.758;4.356;2023-05-29T15:17:38;6.03;;;2.30;;
65096;SDS011;51686;46.758;4.356;2023-05-29T15:20:26;5.93;;;2.10;;
65096;SDS011;51686;46.758;4.356;2023-05-29T15:23:13;4.95;;;1.98;;
65096;SDS011;51686;46.758;4.356;2023-05-29T15:28:49;5.38;;;2.10;;
65096;SDS011;51686;46.758;4.356;2023-05-29T15:31:36;5.75;;;2.10;;
65096;SDS011;51686;46.758;4.356;2023-05-29T15:34:23;5.68;;;2.10;;
65096;SDS011;51686;46.758;4.356;2023-05-29T15:37:10;5.30;;;2.03;;
65096;SDS011;51686;46.758;4.356;2023-05-29T15:39:57;6.22;;;2.20;;
65096;SDS011;51686;46.758;4.356;2023-05-29T15:42:44;6.75;;;2.50;;
65096;SDS011;51686;46.758;4.356;2023-05-29T15:45:32;6.90;;;2.33;;
65096;SDS011;51686;46.758;4.356;2023-05-29T15:48:19;5.43;;;2.17;;
65096;SDS011;51686;46.758;4.356;2023-05-29T15:51:06;6.13;;;2.33;;
65096;SDS011;51686;46.758;4.356;2023-05-29T15:53:53;6.07;;;2.28;;
65096;SDS011;51686;46.758;4.356;2023-05-29T15:56:40;5.88;;;2.20;;
65096;SDS011;51686;46.758;4.356;2023-05-29T15:59:28;5.60;;;2.10;;
65096;SDS011;51686;46.758;4.356;2023-05-29T16:02:15;5.82;;;2.15;;
65096;SDS011;51686;46.758;4.356;2023-05-29T16:05:02;6.18;;;2.35;;
65096;SDS011;51686;46.758;4.356;2023-05-29T16:07:53;6.10;;;2.40;;
65096;SDS011;51686;46.758;4.356;2023-05-29T16:10:40;5.50;;;2.28;;
65096;SDS011;51686;46.758;4.356;2023-05-29T16:13:27;6.30;;;2.67;;
65096;SDS011;51686;46.758;4.356;2023-05-29T16:16:16;5.75;;;2.25;;
65096;SDS011;51686;46.758;4.356;2023-05-29T16:19:03;4.80;;;1.90;;
65096;SDS011;51686;46.758;4.356;2023-05-29T16:21:52;6.78;;;2.58;;
65096;SDS011;51686;46.758;4.356;2023-05-29T16:24:39;6.43;;;2.17;;
65096;SDS011;51686;46.758;4.356;2023-05-29T16:27:26;6.65;;;2.42;;
65096;SDS011;51686;46.758;4.356;2023-05-29T16:30:13;6.60;;;2.42;;
65096;SDS011;51686;46.758;4.356;2023-05-29T16:33:00;5.80;;;2.28;;
65096;SDS011;51686;46.758;4.356;2023-05-29T16:35:47;7.80;;;2.42;;
65096;SDS011;51686;46.758;4.356;2023-05-29T16:38:35;5.47;;;2.03;;
65096;SDS011;51686;46.758;4.356;2023-05-29T16:41:22;6.38;;;2.38;;
65096;SDS011;51686;46.758;4.356;2023-05-29T16:44:09;6.70;;;2.47;;
65096;SDS011;51686;46.758;4.356;2023-05-29T16:46:55;5.38;;;2.25;;
65096;SDS011;51686;46.758;4.356;2023-05-29T16:49:42;5.80;;;2.38;;
65096;SDS011;51686;46.758;4.356;2023-05-29T16:52:29;6.18;;;2.40;;
65096;SDS011;51686;46.758;4.356;2023-05-29T16:55:16;5.90;;;2.30;;
65096;SDS011;51686;46.758;4.356;2023-05-29T16:58:03;5.65;;;2.28;;
65096;SDS011;51686;46.758;4.356;2023-05-29T17:00:50;5.55;;;2.13;;
65096;SDS011;51686;46.758;4.356;2023-05-29T17:03:37;6.05;;;2.22;;
65096;SDS011;51686;46.758;4.356;2023-05-29T17:06:24;6.88;;;2.28;;
65096;SDS011;51686;46.758;4.356;2023-05-29T17:09:11;6.00;;;2.25;;
65096;SDS011;51686;46.758;4.356;2023-05-29T17:11:58;5.97;;;2.15;;
65096;SDS011;51686;46.758;4.356;2023-05-29T17:14:45;5.53;;;2.25;;
65096;SDS011;51686;46.758;4.356;2023-05-29T17:17:32;5.88;;;2.15;;
65096;SDS011;51686;46.758;4.356;2023-05-29T17:20:19;7.57;;;2.45;;
65096;SDS011;51686;46.758;4.356;2023-05-29T17:23:06;6.10;;;2.13;;